sensor_id;sensor_type;location;lat;lon;timestamp;P1;durP1;ratioP1;P2;durP2;ratioP2
14143;SDS011;7152;48.348;10.980;2022-12-16T00:01:30;37.27;;;22.83;;
14143;SDS011;7152;48.348;10.980;2022-12-16T00:03:57;37.20;;;23.00;;
14143;SDS011;7152;48.348;10.980;2022-12-16T00:06:25;33.90;;;22.17;;
14143;SDS011;7152;48.348;10.980;2022-12-16T00:08:53;36.43;;;22.73;;
14143;SDS011;7152;48.348;10.980;2022-12-16T00:11:19;31.73;;;22.33;;
14143;SDS011;7152;48.348;10.980;2022-12-16T00:13:45;35.23;;;21.03;;
14143;SDS011;7152;48.348;10.980;2022-12-16T00:16:12;38.53;;;23.00;;
14143;SDS011;7152;48.348;10.980;2022-12-16T00:18:39;36.13;;;22.43;;
14143;SDS011;7152;48.348;10.980;2022-12-16T00:21:05;37.83;;;23.03;;
14143;SDS011;7152;48.348;10.980;2022-12-16T00:23:32;39.90;;;24.40;;
14143;SDS011;7152;48.348;10.980;2022-12-16T00:25:58;41.27;;;24.80;;
14143;SDS011;7152;48.348;10.980;2022-12-16T00:28:24;38.67;;;23.57;;
14143;SDS011;7152;48.348;10.980;2022-12-16T00:30:50;38.53;;;23.67;;
14143;SDS011;7152;48.348;10.980;2022-12-16T00:33:17;40.50;;;25.43;;
14143;SDS011;7152;48.348;10.980;2022-12-16T00:35:45;42.17;;;25.93;;
14143;SDS011;7152;48.348;10.980;2022-12-16T00:38:11;41.23;;;25.47;;
14143;SDS011;7152;48.348;10.980;2022-12-16T00:40:37;40.03;;;25.60;;
14143;SDS011;7152;48.348;10.980;2022-12-16T00:43:02;41.33;;;25.70;;
14143;SDS011;7152;48.348;10.980;2022-12-16T00:45:28;41.30;;;25.80;;
14143;SDS011;7152;48.348;10.980;2022-12-16T00:47:54;40.23;;;24.63;;
14143;SDS011;7152;48.348;10.980;2022-12-16T00:50:20;43.07;;;27.20;;
14143;SDS011;7152;48.348;10.980;2022-12-16T00:52:46;42.63;;;26.03;;
14143;SDS011;7152;48.348;10.980;2022-12-16T00:55:12;43.20;;;27.07;;
14143;SDS011;7152;48.348;10.980;2022-12-16T00:57:38;45.83;;;28.33;;
14143;SDS011;7152;48.348;10.980;2022-12-16T01:00:05;46.17;;;28.10;;
14143;SDS011;7152;48.348;10.980;2022-12-16T01:02:36;43.70;;;27.20;;
14143;SDS011;7152;48.348;10.980;2022-12-16T01:05:06;44.70;;;26.73;;
14143;SDS011;7152;48.348;10.980;2022-12-16T01:07:32;43.53;;;25.87;;
14143;SDS011;7152;48.348;10.980;2022-12-16T01:09:58;47.70;;;27.30;;
14143;SDS011;7152;48.348;10.980;2022-12-16T01:12:24;42.40;;;27.10;;
14143;SDS011;7152;48.348;10.980;2022-12-16T01:14:49;44.10;;;26.63;;
14143;SDS011;7152;48.348;10.980;2022-12-16T01:17:15;43.73;;;26.50;;
14143;SDS011;7152;48.348;10.980;2022-12-16T01:19:41;44.43;;;26.57;;
14143;SDS011;7152;48.348;10.980;2022-12-16T01:22:06;41.37;;;25.50;;
14143;SDS011;7152;48.348;10.980;2022-12-16T01:24:34;41.40;;;27.77;;
14143;SDS011;7152;48.348;10.980;2022-12-16T01:26:59;47.70;;;26.60;;
14143;SDS011;7152;48.348;10.980;2022-12-16T01:29:25;46.20;;;27.83;;
14143;SDS011;7152;48.348;10.980;2022-12-16T01:31:51;45.83;;;29.47;;
14143;SDS011;7152;48.348;10.980;2022-12-16T01:34:16;44.07;;;27.40;;
14143;SDS011;7152;48.348;10.980;2022-12-16T01:36:42;47.03;;;26.83;;
14143;SDS011;7152;48.348;10.980;2022-12-16T01:39:08;43.23;;;27.17;;
14143;SDS011;7152;48.348;10.980;2022-12-16T01:41:35;39.00;;;25.07;;
14143;SDS011;7152;48.348;10.980;2022-12-16T01:44:14;42.37;;;25.90;;
14143;SDS011;7152;48.348;10.980;2022-12-16T01:46:48;43.43;;;26.63;;
14143;SDS011;7152;48.348;10.980;2022-12-16T01:49:43;40.23;;;25.03;;
14143;SDS011;7152;48.348;10.980;2022-12-16T01:52:09;38.17;;;22.03;;
14143;SDS011;7152;48.348;10.980;2022-12-16T01:54:42;34.20;;;20.77;;
14143;SDS011;7152;48.348;10.980;2022-12-16T01:57:17;41.50;;;24.37;;
14143;SDS011;7152;48.348;10.980;2022-12-16T01:59:46;39.73;;;24.57;;
14143;SDS011;7152;48.348;10.980;2022-12-16T02:02:15;34.83;;;21.77;;
14143;SDS011;7152;48.348;10.980;2022-12-16T02:04:41;42.23;;;23.87;;
14143;SDS011;7152;48.348;10.980;2022-12-16T02:07:26;37.50;;;22.53;;
14143;SDS011;7152;48.348;10.980;2022-12-16T02:09:52;42.57;;;26.07;;
14143;SDS011;7152;48.348;10.980;2022-12-16T02:34:12;37.53;;;23.50;;
14143;SDS011;7152;48.348;10.980;2022-12-16T02:36:50;41.60;;;25.57;;
14143;SDS011;7152;48.348;10.980;2022-12-16T02:42:13;39.63;;;24.33;;
14143;SDS011;7152;48.348;10.980;2022-12-16T02:47:35;37.47;;;22.67;;
14143;SDS011;7152;48.348;10.980;2022-12-16T02:50:00;40.00;;;23.97;;
14143;SDS011;7152;48.348;10.980;2022-12-16T02:52:28;37.87;;;22.80;;
14143;SDS011;7152;48.348;10.980;2022-12-16T02:54:57;40.57;;;24.40;;
14143;SDS011;7152;48.348;10.980;2022-12-16T03:00:11;38.00;;;23.43;;
14143;SDS011;7152;48.348;10.980;2022-12-16T03:05:24;38.40;;;23.93;;
14143;SDS011;7152;48.348;10.980;2022-12-16T03:07:59;41.83;;;24.60;;
14143;SDS011;7152;48.348;10.980;2022-12-16T03:10:29;42.97;;;25.30;;
14143;SDS011;7152;48.348;10.980;2022-12-16T03:12:59;40.57;;;24.03;;
14143;SDS011;7152;48.348;10.980;2022-12-16T03:15:28;37.97;;;24.00;;
14143;SDS011;7152;48.348;10.980;2022-12-16T03:17:57;41.63;;;25.47;;
14143;SDS011;7152;48.348;10.980;2022-12-16T03:20:29;40.90;;;25.10;;
14143;SDS011;7152;48.348;10.980;2022-12-16T03:23:00;42.60;;;25.53;;
14143;SDS011;7152;48.348;10.980;2022-12-16T03:25:30;46.23;;;26.07;;
14143;SDS011;7152;48.348;10.980;2022-12-16T03:30:31;41.90;;;25.87;;
14143;SDS011;7152;48.348;10.980;2022-12-16T03:33:24;40.33;;;25.23;;
14143;SDS011;7152;48.348;10.980;2022-12-16T03:35:58;36.93;;;24.30;;
14143;SDS011;7152;48.348;10.980;2022-12-16T03:38:28;44.10;;;26.73;;
14143;SDS011;7152;48.348;10.980;2022-12-16T03:40:56;45.47;;;27.47;;
14143;SDS011;7152;48.348;10.980;2022-12-16T03:43:23;46.63;;;28.13;;
14143;SDS011;7152;48.348;10.980;2022-12-16T03:45:50;41.40;;;26.90;;
14143;SDS011;7152;48.348;10.980;2022-12-16T03:48:21;47.97;;;26.97;;
14143;SDS011;7152;48.348;10.980;2022-12-16T03:50:47;43.17;;;26.90;;
14143;SDS011;7152;48.348;10.980;2022-12-16T03:53:13;43.80;;;26.40;;
14143;SDS011;7152;48.348;10.980;2022-12-16T03:55:38;46.90;;;27.77;;
14143;SDS011;7152;48.348;10.980;2022-12-16T03:58:04;44.53;;;27.07;;
14143;SDS011;7152;48.348;10.980;2022-12-16T04:00:30;42.30;;;26.03;;
14143;SDS011;7152;48.348;10.980;2022-12-16T04:02:56;45.00;;;28.67;;
14143;SDS011;7152;48.348;10.980;2022-12-16T04:05:21;46.70;;;28.23;;
14143;SDS011;7152;48.348;10.980;2022-12-16T04:07:47;46.77;;;27.87;;
14143;SDS011;7152;48.348;10.980;2022-12-16T04:10:13;44.57;;;27.80;;
14143;SDS011;7152;48.348;10.980;2022-12-16T04:12:38;45.20;;;28.13;;
14143;SDS011;7152;48.348;10.980;2022-12-16T04:15:23;47.50;;;29.13;;
14143;SDS011;7152;48.348;10.980;2022-12-16T04:18:08;49.07;;;27.77;;
14143;SDS011;7152;48.348;10.980;2022-12-16T04:20:58;43.00;;;28.73;;
14143;SDS011;7152;48.348;10.980;2022-12-16T04:23:46;41.23;;;26.53;;
14143;SDS011;7152;48.348;10.980;2022-12-16T04:26:33;48.70;;;29.03;;
14143;SDS011;7152;48.348;10.980;2022-12-16T04:29:21;47.13;;;29.10;;
14143;SDS011;7152;48.348;10.980;2022-12-16T04:31:47;47.70;;;29.23;;
14143;SDS011;7152;48.348;10.980;2022-12-16T04:34:13;50.13;;;28.67;;
14143;SDS011;7152;48.348;10.980;2022-12-16T04:36:54;47.20;;;29.20;;
14143;SDS011;7152;48.348;10.980;2022-12-16T04:39:40;43.70;;;27.23;;
14143;SDS011;7152;48.348;10.980;2022-12-16T04:42:24;48.80;;;27.97;;
14143;SDS011;7152;48.348;10.980;2022-12-16T04:45:08;46.83;;;29.13;;
14143;SDS011;7152;48.348;10.980;2022-12-16T04:47:53;49.17;;;29.43;;
14143;SDS011;7152;48.348;10.980;2022-12-16T04:50:38;44.17;;;27.27;;
14143;SDS011;7152;48.348;10.980;2022-12-16T04:53:22;48.30;;;28.10;;
14143;SDS011;7152;48.348;10.980;2022-12-16T04:56:08;46.70;;;27.63;;
14143;SDS011;7152;48.348;10.980;2022-12-16T04:58:53;46.90;;;27.47;;
14143;SDS011;7152;48.348;10.980;2022-12-16T05:01:37;50.17;;;28.57;;
14143;SDS011;7152;48.348;10.980;2022-12-16T05:04:21;45.03;;;26.40;;
14143;SDS011;7152;48.348;10.980;2022-12-16T05:07:05;42.77;;;25.47;;
14143;SDS011;7152;48.348;10.980;2022-12-16T05:09:49;43.60;;;25.83;;
14143;SDS011;7152;48.348;10.980;2022-12-16T05:12:33;43.30;;;24.87;;
14143;SDS011;7152;48.348;10.980;2022-12-16T05:15:18;39.57;;;24.40;;
14143;SDS011;7152;48.348;10.980;2022-12-16T05:18:09;38.17;;;23.83;;
14143;SDS011;7152;48.348;10.980;2022-12-16T05:20:56;43.70;;;24.90;;
14143;SDS011;7152;48.348;10.980;2022-12-16T05:23:45;42.53;;;24.37;;
14143;SDS011;7152;48.348;10.980;2022-12-16T05:26:30;42.63;;;24.67;;
14143;SDS011;7152;48.348;10.980;2022-12-16T05:29:14;43.67;;;25.33;;
14143;SDS011;7152;48.348;10.980;2022-12-16T05:32:11;45.40;;;26.40;;
14143;SDS011;7152;48.348;10.980;2022-12-16T05:34:56;46.80;;;27.47;;
14143;SDS011;7152;48.348;10.980;2022-12-16T05:37:40;43.00;;;26.50;;
14143;SDS011;7152;48.348;10.980;2022-12-16T05:40:24;44.67;;;25.43;;
14143;SDS011;7152;48.348;10.980;2022-12-16T05:43:09;45.73;;;26.60;;
14143;SDS011;7152;48.348;10.980;2022-12-16T05:45:53;44.67;;;28.13;;
14143;SDS011;7152;48.348;10.980;2022-12-16T05:48:37;51.20;;;28.43;;
14143;SDS011;7152;48.348;10.980;2022-12-16T05:51:21;45.67;;;26.60;;
14143;SDS011;7152;48.348;10.980;2022-12-16T05:54:05;51.37;;;28.93;;
14143;SDS011;7152;48.348;10.980;2022-12-16T05:56:49;49.23;;;29.07;;
14143;SDS011;7152;48.348;10.980;2022-12-16T05:59:34;52.57;;;28.77;;
14143;SDS011;7152;48.348;10.980;2022-12-16T06:02:18;54.37;;;27.77;;
14143;SDS011;7152;48.348;10.980;2022-12-16T06:05:02;49.33;;;27.57;;
14143;SDS011;7152;48.348;10.980;2022-12-16T06:07:50;50.00;;;28.90;;
14143;SDS011;7152;48.348;10.980;2022-12-16T06:10:35;53.53;;;29.73;;
14143;SDS011;7152;48.348;10.980;2022-12-16T06:13:19;52.13;;;30.00;;
14143;SDS011;7152;48.348;10.980;2022-12-16T06:16:03;46.50;;;27.87;;
14143;SDS011;7152;48.348;10.980;2022-12-16T06:18:48;51.47;;;29.10;;
14143;SDS011;7152;48.348;10.980;2022-12-16T06:21:32;53.00;;;29.63;;
14143;SDS011;7152;48.348;10.980;2022-12-16T06:24:16;52.53;;;28.47;;
14143;SDS011;7152;48.348;10.980;2022-12-16T06:27:00;50.53;;;28.97;;
14143;SDS011;7152;48.348;10.980;2022-12-16T06:29:44;52.33;;;30.60;;
14143;SDS011;7152;48.348;10.980;2022-12-16T06:32:28;51.30;;;29.87;;
14143;SDS011;7152;48.348;10.980;2022-12-16T06:35:12;52.93;;;31.13;;
14143;SDS011;7152;48.348;10.980;2022-12-16T06:37:56;48.27;;;28.33;;
14143;SDS011;7152;48.348;10.980;2022-12-16T06:40:40;51.13;;;29.00;;
14143;SDS011;7152;48.348;10.980;2022-12-16T06:43:24;52.10;;;28.87;;
14143;SDS011;7152;48.348;10.980;2022-12-16T06:46:08;52.33;;;29.13;;
14143;SDS011;7152;48.348;10.980;2022-12-16T06:48:52;51.00;;;29.50;;
14143;SDS011;7152;48.348;10.980;2022-12-16T06:51:36;50.67;;;29.80;;
14143;SDS011;7152;48.348;10.980;2022-12-16T06:54:20;49.90;;;29.43;;
14143;SDS011;7152;48.348;10.980;2022-12-16T06:57:04;52.87;;;29.90;;
14143;SDS011;7152;48.348;10.980;2022-12-16T06:59:48;53.33;;;28.97;;
14143;SDS011;7152;48.348;10.980;2022-12-16T07:02:32;52.23;;;30.20;;
14143;SDS011;7152;48.348;10.980;2022-12-16T07:05:16;52.50;;;29.30;;
14143;SDS011;7152;48.348;10.980;2022-12-16T07:08:00;51.37;;;28.57;;
14143;SDS011;7152;48.348;10.980;2022-12-16T07:10:44;50.27;;;28.70;;
14143;SDS011;7152;48.348;10.980;2022-12-16T07:13:28;53.73;;;30.00;;
14143;SDS011;7152;48.348;10.980;2022-12-16T07:16:12;51.40;;;30.17;;
14143;SDS011;7152;48.348;10.980;2022-12-16T07:18:57;52.00;;;29.87;;
14143;SDS011;7152;48.348;10.980;2022-12-16T07:21:41;49.53;;;29.50;;
14143;SDS011;7152;48.348;10.980;2022-12-16T07:24:25;48.70;;;29.30;;
14143;SDS011;7152;48.348;10.980;2022-12-16T07:27:09;49.43;;;30.53;;
14143;SDS011;7152;48.348;10.980;2022-12-16T07:29:53;50.10;;;29.80;;
14143;SDS011;7152;48.348;10.980;2022-12-16T07:32:37;44.80;;;27.80;;
14143;SDS011;7152;48.348;10.980;2022-12-16T07:35:21;49.07;;;28.47;;
14143;SDS011;7152;48.348;10.980;2022-12-16T07:38:05;44.63;;;26.77;;
14143;SDS011;7152;48.348;10.980;2022-12-16T07:40:49;44.83;;;27.90;;
14143;SDS011;7152;48.348;10.980;2022-12-16T07:43:33;44.07;;;27.50;;
14143;SDS011;7152;48.348;10.980;2022-12-16T07:46:17;49.33;;;28.43;;
14143;SDS011;7152;48.348;10.980;2022-12-16T07:49:01;46.27;;;27.57;;
14143;SDS011;7152;48.348;10.980;2022-12-16T07:51:45;47.10;;;28.33;;
14143;SDS011;7152;48.348;10.980;2022-12-16T07:54:29;46.13;;;27.60;;
14143;SDS011;7152;48.348;10.980;2022-12-16T07:57:13;50.07;;;28.53;;
14143;SDS011;7152;48.348;10.980;2022-12-16T07:59:58;44.43;;;26.33;;
14143;SDS011;7152;48.348;10.980;2022-12-16T08:02:42;43.17;;;28.20;;
14143;SDS011;7152;48.348;10.980;2022-12-16T08:05:26;44.07;;;26.67;;
14143;SDS011;7152;48.348;10.980;2022-12-16T08:08:10;42.73;;;26.20;;
14143;SDS011;7152;48.348;10.980;2022-12-16T08:10:54;46.43;;;28.37;;
14143;SDS011;7152;48.348;10.980;2022-12-16T08:13:39;46.73;;;26.77;;
14143;SDS011;7152;48.348;10.980;2022-12-16T08:16:23;45.07;;;27.90;;
14143;SDS011;7152;48.348;10.980;2022-12-16T08:19:07;47.53;;;28.83;;
14143;SDS011;7152;48.348;10.980;2022-12-16T08:21:51;46.00;;;27.43;;
14143;SDS011;7152;48.348;10.980;2022-12-16T08:24:35;42.97;;;26.77;;
14143;SDS011;7152;48.348;10.980;2022-12-16T08:27:19;45.50;;;27.03;;
14143;SDS011;7152;48.348;10.980;2022-12-16T08:30:11;42.20;;;26.00;;
14143;SDS011;7152;48.348;10.980;2022-12-16T08:32:55;39.70;;;27.07;;
14143;SDS011;7152;48.348;10.980;2022-12-16T08:35:40;39.87;;;25.43;;
14143;SDS011;7152;48.348;10.980;2022-12-16T08:38:24;40.83;;;25.40;;
14143;SDS011;7152;48.348;10.980;2022-12-16T08:41:08;41.67;;;26.53;;
14143;SDS011;7152;48.348;10.980;2022-12-16T08:43:52;44.40;;;26.80;;
14143;SDS011;7152;48.348;10.980;2022-12-16T08:46:36;39.27;;;25.93;;
14143;SDS011;7152;48.348;10.980;2022-12-16T08:49:20;43.50;;;27.00;;
14143;SDS011;7152;48.348;10.980;2022-12-16T08:52:04;40.40;;;26.90;;
14143;SDS011;7152;48.348;10.980;2022-12-16T08:54:48;41.17;;;27.27;;
14143;SDS011;7152;48.348;10.980;2022-12-16T08:57:32;40.67;;;24.83;;
14143;SDS011;7152;48.348;10.980;2022-12-16T09:00:17;36.93;;;24.17;;
14143;SDS011;7152;48.348;10.980;2022-12-16T09:03:01;39.33;;;24.53;;
14143;SDS011;7152;48.348;10.980;2022-12-16T09:05:45;36.30;;;23.33;;
14143;SDS011;7152;48.348;10.980;2022-12-16T09:08:29;33.23;;;21.77;;
14143;SDS011;7152;48.348;10.980;2022-12-16T09:11:14;34.47;;;22.83;;
14143;SDS011;7152;48.348;10.980;2022-12-16T09:13:58;36.10;;;23.23;;
14143;SDS011;7152;48.348;10.980;2022-12-16T09:16:42;36.33;;;23.40;;
14143;SDS011;7152;48.348;10.980;2022-12-16T09:19:26;34.93;;;21.30;;
14143;SDS011;7152;48.348;10.980;2022-12-16T09:22:10;35.77;;;22.70;;
14143;SDS011;7152;48.348;10.980;2022-12-16T09:24:54;31.30;;;22.10;;
14143;SDS011;7152;48.348;10.980;2022-12-16T09:27:38;35.40;;;23.90;;
14143;SDS011;7152;48.348;10.980;2022-12-16T09:30:22;32.60;;;22.60;;
14143;SDS011;7152;48.348;10.980;2022-12-16T09:33:06;33.13;;;21.47;;
14143;SDS011;7152;48.348;10.980;2022-12-16T09:35:50;32.50;;;22.00;;
14143;SDS011;7152;48.348;10.980;2022-12-16T09:38:34;35.00;;;22.13;;
14143;SDS011;7152;48.348;10.980;2022-12-16T09:41:24;32.90;;;22.30;;
14143;SDS011;7152;48.348;10.980;2022-12-16T09:44:17;35.50;;;23.83;;
14143;SDS011;7152;48.348;10.980;2022-12-16T09:49:56;38.97;;;24.73;;
14143;SDS011;7152;48.348;10.980;2022-12-16T09:52:43;35.60;;;24.10;;
14143;SDS011;7152;48.348;10.980;2022-12-16T09:55:42;38.03;;;24.60;;
14143;SDS011;7152;48.348;10.980;2022-12-16T09:58:31;39.10;;;24.10;;
14143;SDS011;7152;48.348;10.980;2022-12-16T10:01:21;41.27;;;26.77;;
14143;SDS011;7152;48.348;10.980;2022-12-16T10:04:08;40.20;;;25.20;;
14143;SDS011;7152;48.348;10.980;2022-12-16T10:06:52;37.10;;;24.80;;
14143;SDS011;7152;48.348;10.980;2022-12-16T10:09:59;39.07;;;25.47;;
14143;SDS011;7152;48.348;10.980;2022-12-16T10:16:22;35.63;;;24.13;;
14143;SDS011;7152;48.348;10.980;2022-12-16T10:22:06;33.83;;;23.13;;
14143;SDS011;7152;48.348;10.980;2022-12-16T10:27:58;36.20;;;23.67;;
14143;SDS011;7152;48.348;10.980;2022-12-16T10:30:50;34.27;;;23.03;;
14143;SDS011;7152;48.348;10.980;2022-12-16T10:33:35;36.17;;;24.10;;
14143;SDS011;7152;48.348;10.980;2022-12-16T10:36:20;37.60;;;24.40;;
14143;SDS011;7152;48.348;10.980;2022-12-16T10:39:15;38.87;;;24.77;;
14143;SDS011;7152;48.348;10.980;2022-12-16T10:42:23;40.90;;;23.83;;
14143;SDS011;7152;48.348;10.980;2022-12-16T10:45:14;38.00;;;23.97;;
14143;SDS011;7152;48.348;10.980;2022-12-16T10:48:02;34.87;;;24.10;;
14143;SDS011;7152;48.348;10.980;2022-12-16T10:50:47;37.90;;;24.80;;
14143;SDS011;7152;48.348;10.980;2022-12-16T10:53:31;37.63;;;24.77;;
14143;SDS011;7152;48.348;10.980;2022-12-16T10:59:33;35.60;;;24.23;;
14143;SDS011;7152;48.348;10.980;2022-12-16T11:02:20;39.23;;;25.27;;
14143;SDS011;7152;48.348;10.980;2022-12-16T11:08:29;32.00;;;21.50;;
14143;SDS011;7152;48.348;10.980;2022-12-16T11:11:26;33.90;;;23.37;;
14143;SDS011;7152;48.348;10.980;2022-12-16T11:14:19;35.97;;;23.43;;
14143;SDS011;7152;48.348;10.980;2022-12-16T11:20:05;30.23;;;21.77;;
14143;SDS011;7152;48.348;10.980;2022-12-16T11:23:10;31.47;;;22.43;;
14143;SDS011;7152;48.348;10.980;2022-12-16T11:26:29;31.70;;;21.30;;
14143;SDS011;7152;48.348;10.980;2022-12-16T11:31:59;32.43;;;22.73;;
14143;SDS011;7152;48.348;10.980;2022-12-16T11:34:44;30.90;;;22.13;;
14143;SDS011;7152;48.348;10.980;2022-12-16T11:37:33;32.17;;;22.67;;
14143;SDS011;7152;48.348;10.980;2022-12-16T11:40:17;32.77;;;21.83;;
14143;SDS011;7152;48.348;10.980;2022-12-16T11:43:04;32.70;;;21.53;;
14143;SDS011;7152;48.348;10.980;2022-12-16T11:45:49;31.10;;;22.50;;
14143;SDS011;7152;48.348;10.980;2022-12-16T11:49:10;35.13;;;23.80;;
14143;SDS011;7152;48.348;10.980;2022-12-16T11:51:56;32.03;;;21.97;;
14143;SDS011;7152;48.348;10.980;2022-12-16T11:54:49;33.83;;;20.53;;
14143;SDS011;7152;48.348;10.980;2022-12-16T12:01:29;31.63;;;20.97;;
14143;SDS011;7152;48.348;10.980;2022-12-16T12:04:30;28.87;;;20.87;;
14143;SDS011;7152;48.348;10.980;2022-12-16T12:22:37;32.60;;;21.00;;
14143;SDS011;7152;48.348;10.980;2022-12-16T12:34:48;28.87;;;19.77;;
14143;SDS011;7152;48.348;10.980;2022-12-16T12:37:42;26.67;;;19.13;;
14143;SDS011;7152;48.348;10.980;2022-12-16T12:46:57;33.40;;;22.03;;
14143;SDS011;7152;48.348;10.980;2022-12-16T12:55:43;31.47;;;21.77;;
14143;SDS011;7152;48.348;10.980;2022-12-16T12:58:32;34.40;;;25.10;;
14143;SDS011;7152;48.348;10.980;2022-12-16T13:01:19;32.87;;;24.70;;
14143;SDS011;7152;48.348;10.980;2022-12-16T13:04:17;32.17;;;23.80;;
14143;SDS011;7152;48.348;10.980;2022-12-16T13:07:04;30.97;;;23.23;;
14143;SDS011;7152;48.348;10.980;2022-12-16T13:15:58;25.13;;;17.33;;
14143;SDS011;7152;48.348;10.980;2022-12-16T13:18:43;24.03;;;16.80;;
14143;SDS011;7152;48.348;10.980;2022-12-16T13:24:28;26.40;;;18.30;;
14143;SDS011;7152;48.348;10.980;2022-12-16T13:27:18;27.67;;;18.07;;
14143;SDS011;7152;48.348;10.980;2022-12-16T13:32:54;25.53;;;16.63;;
14143;SDS011;7152;48.348;10.980;2022-12-16T13:35:53;24.40;;;17.30;;
14143;SDS011;7152;48.348;10.980;2022-12-16T13:38:50;23.73;;;16.90;;
14143;SDS011;7152;48.348;10.980;2022-12-16T13:48:15;24.00;;;16.77;;
14143;SDS011;7152;48.348;10.980;2022-12-16T13:50:35;24.83;;;17.07;;
14143;SDS011;7152;48.348;10.980;2022-12-16T13:53:26;23.87;;;17.33;;
14143;SDS011;7152;48.348;10.980;2022-12-16T13:56:15;21.63;;;15.23;;
14143;SDS011;7152;48.348;10.980;2022-12-16T13:59:07;23.60;;;16.40;;
14143;SDS011;7152;48.348;10.980;2022-12-16T14:02:01;20.93;;;15.30;;
14143;SDS011;7152;48.348;10.980;2022-12-16T14:04:59;21.67;;;15.73;;
14143;SDS011;7152;48.348;10.980;2022-12-16T14:07:43;22.10;;;15.47;;
14143;SDS011;7152;48.348;10.980;2022-12-16T14:10:29;20.50;;;14.50;;
14143;SDS011;7152;48.348;10.980;2022-12-16T14:13:20;22.37;;;15.87;;
14143;SDS011;7152;48.348;10.980;2022-12-16T14:16:20;26.73;;;19.13;;
14143;SDS011;7152;48.348;10.980;2022-12-16T14:25:23;25.83;;;21.60;;
14143;SDS011;7152;48.348;10.980;2022-12-16T14:28:21;21.10;;;17.17;;
14143;SDS011;7152;48.348;10.980;2022-12-16T14:31:22;22.10;;;14.63;;
14143;SDS011;7152;48.348;10.980;2022-12-16T14:34:14;23.07;;;15.37;;
14143;SDS011;7152;48.348;10.980;2022-12-16T14:37:06;20.97;;;15.17;;
14143;SDS011;7152;48.348;10.980;2022-12-16T14:39:55;20.87;;;16.00;;
14143;SDS011;7152;48.348;10.980;2022-12-16T14:42:39;20.77;;;15.43;;
14143;SDS011;7152;48.348;10.980;2022-12-16T14:45:29;19.80;;;15.00;;
14143;SDS011;7152;48.348;10.980;2022-12-16T14:51:19;19.87;;;15.07;;
14143;SDS011;7152;48.348;10.980;2022-12-16T14:54:16;21.10;;;14.40;;
14143;SDS011;7152;48.348;10.980;2022-12-16T14:57:00;19.27;;;14.57;;
14143;SDS011;7152;48.348;10.980;2022-12-16T14:59:44;19.63;;;14.40;;
14143;SDS011;7152;48.348;10.980;2022-12-16T15:02:30;22.93;;;16.53;;
14143;SDS011;7152;48.348;10.980;2022-12-16T15:05:19;23.13;;;15.83;;
14143;SDS011;7152;48.348;10.980;2022-12-16T15:08:26;23.20;;;16.93;;
14143;SDS011;7152;48.348;10.980;2022-12-16T15:11:14;19.80;;;15.70;;
14143;SDS011;7152;48.348;10.980;2022-12-16T15:14:01;26.50;;;18.00;;
14143;SDS011;7152;48.348;10.980;2022-12-16T15:16:46;23.50;;;16.13;;
14143;SDS011;7152;48.348;10.980;2022-12-16T15:19:38;26.73;;;16.53;;
14143;SDS011;7152;48.348;10.980;2022-12-16T15:22:26;21.70;;;16.77;;
14143;SDS011;7152;48.348;10.980;2022-12-16T15:25:16;23.83;;;16.73;;
14143;SDS011;7152;48.348;10.980;2022-12-16T15:28:03;26.60;;;17.43;;
14143;SDS011;7152;48.348;10.980;2022-12-16T15:30:47;27.27;;;18.40;;
14143;SDS011;7152;48.348;10.980;2022-12-16T15:33:36;25.40;;;17.73;;
14143;SDS011;7152;48.348;10.980;2022-12-16T15:39:22;26.13;;;16.87;;
14143;SDS011;7152;48.348;10.980;2022-12-16T15:42:20;28.93;;;16.03;;
14143;SDS011;7152;48.348;10.980;2022-12-16T15:51:02;27.90;;;18.27;;
14143;SDS011;7152;48.348;10.980;2022-12-16T15:53:59;27.70;;;18.30;;
14143;SDS011;7152;48.348;10.980;2022-12-16T15:56:45;27.40;;;16.37;;
14143;SDS011;7152;48.348;10.980;2022-12-16T16:05:13;33.03;;;21.23;;
14143;SDS011;7152;48.348;10.980;2022-12-16T16:08:00;26.47;;;17.83;;
14143;SDS011;7152;48.348;10.980;2022-12-16T16:10:45;28.40;;;18.87;;
14143;SDS011;7152;48.348;10.980;2022-12-16T16:13:29;28.33;;;18.33;;
14143;SDS011;7152;48.348;10.980;2022-12-16T16:16:13;26.10;;;19.00;;
14143;SDS011;7152;48.348;10.980;2022-12-16T16:18:58;30.43;;;19.63;;
14143;SDS011;7152;48.348;10.980;2022-12-16T16:21:42;32.47;;;21.23;;
14143;SDS011;7152;48.348;10.980;2022-12-16T16:24:27;28.07;;;20.27;;
14143;SDS011;7152;48.348;10.980;2022-12-16T16:27:12;29.73;;;20.37;;
14143;SDS011;7152;48.348;10.980;2022-12-16T16:29:57;30.07;;;18.47;;
14143;SDS011;7152;48.348;10.980;2022-12-16T16:32:43;30.07;;;19.63;;
14143;SDS011;7152;48.348;10.980;2022-12-16T16:35:32;37.77;;;26.07;;
14143;SDS011;7152;48.348;10.980;2022-12-16T16:38:16;32.20;;;21.23;;
14143;SDS011;7152;48.348;10.980;2022-12-16T16:41:01;44.13;;;29.67;;
14143;SDS011;7152;48.348;10.980;2022-12-16T16:43:45;30.93;;;18.70;;
14143;SDS011;7152;48.348;10.980;2022-12-16T16:46:30;31.07;;;19.43;;
14143;SDS011;7152;48.348;10.980;2022-12-16T16:52:27;31.37;;;17.73;;
14143;SDS011;7152;48.348;10.980;2022-12-16T16:55:16;30.87;;;18.03;;
14143;SDS011;7152;48.348;10.980;2022-12-16T16:58:05;27.97;;;17.97;;
14143;SDS011;7152;48.348;10.980;2022-12-16T17:00:55;30.57;;;20.47;;
14143;SDS011;7152;48.348;10.980;2022-12-16T17:03:39;31.50;;;18.87;;
14143;SDS011;7152;48.348;10.980;2022-12-16T17:06:23;28.87;;;19.27;;
14143;SDS011;7152;48.348;10.980;2022-12-16T17:09:09;26.70;;;19.00;;
14143;SDS011;7152;48.348;10.980;2022-12-16T17:11:53;30.43;;;19.33;;
14143;SDS011;7152;48.348;10.980;2022-12-16T17:14:37;28.60;;;20.10;;
14143;SDS011;7152;48.348;10.980;2022-12-16T17:17:22;30.93;;;19.67;;
14143;SDS011;7152;48.348;10.980;2022-12-16T17:20:06;29.13;;;19.83;;
14143;SDS011;7152;48.348;10.980;2022-12-16T17:22:51;27.43;;;19.57;;
14143;SDS011;7152;48.348;10.980;2022-12-16T17:25:35;26.03;;;17.00;;
14143;SDS011;7152;48.348;10.980;2022-12-16T17:28:20;26.47;;;18.40;;
14143;SDS011;7152;48.348;10.980;2022-12-16T17:31:04;28.40;;;18.27;;
14143;SDS011;7152;48.348;10.980;2022-12-16T17:33:48;29.63;;;20.53;;
14143;SDS011;7152;48.348;10.980;2022-12-16T17:36:32;24.77;;;16.40;;
14143;SDS011;7152;48.348;10.980;2022-12-16T17:39:16;24.40;;;18.20;;
14143;SDS011;7152;48.348;10.980;2022-12-16T17:42:00;22.67;;;15.77;;
14143;SDS011;7152;48.348;10.980;2022-12-16T17:44:45;20.87;;;15.80;;
14143;SDS011;7152;48.348;10.980;2022-12-16T17:47:29;20.57;;;15.27;;
14143;SDS011;7152;48.348;10.980;2022-12-16T17:50:13;23.10;;;15.07;;
14143;SDS011;7152;48.348;10.980;2022-12-16T17:52:57;24.20;;;16.30;;
14143;SDS011;7152;48.348;10.980;2022-12-16T17:55:42;23.13;;;16.37;;
14143;SDS011;7152;48.348;10.980;2022-12-16T17:58:30;22.50;;;16.03;;
14143;SDS011;7152;48.348;10.980;2022-12-16T18:01:18;23.20;;;15.03;;
14143;SDS011;7152;48.348;10.980;2022-12-16T18:04:03;23.23;;;15.77;;
14143;SDS011;7152;48.348;10.980;2022-12-16T18:06:47;21.77;;;14.87;;
14143;SDS011;7152;48.348;10.980;2022-12-16T18:09:31;23.67;;;16.27;;
14143;SDS011;7152;48.348;10.980;2022-12-16T18:12:15;21.40;;;15.07;;
14143;SDS011;7152;48.348;10.980;2022-12-16T18:15:00;20.40;;;13.70;;